sensor_id;sensor_type;location;lat;lon;timestamp;pressure;altitude;pressure_sealevel;temperature;humidity
57192;BME280;43052;52.588;13.396;2023-07-30T00:01:24;100397.09;;;16.59;95.09
57192;BME280;43052;52.588;13.396;2023-07-30T00:03:50;100392.75;;;16.58;95.27
57192;BME280;43052;52.588;13.396;2023-07-30T00:06:15;100399.84;;;16.56;95.32
57192;BME280;43052;52.588;13.396;2023-07-30T00:08:40;100399.00;;;16.56;95.64
57192;BME280;43052;52.588;13.396;2023-07-30T00:11:06;100403.41;;;16.55;95.63
57192;BME280;43052;52.588;13.396;2023-07-30T00:13:31;100399.03;;;16.54;96.02
57192;BME280;43052;52.588;13.396;2023-07-30T00:15:56;100396.53;;;16.51;95.81
57192;BME280;43052;52.588;13.396;2023-07-30T00:18:21;100400.06;;;16.50;95.79
57192;BME280;43052;52.588;13.396;2023-07-30T00:20:47;100401.84;;;16.50;96.07
57192;BME280;43052;52.588;13.396;2023-07-30T00:23:12;100397.53;;;16.47;95.96
57192;BME280;43052;52.588;13.396;2023-07-30T00:25:37;100394.16;;;16.43;96.22
57192;BME280;43052;52.588;13.396;2023-07-30T00:28:03;100394.22;;;16.42;96.04
57192;BME280;43052;52.588;13.396;2023-07-30T00:30:28;100396.94;;;16.39;96.34
57192;BME280;43052;52.588;13.396;2023-07-30T00:32:53;100391.75;;;16.37;96.71
57192;BME280;43052;52.588;13.396;2023-07-30T00:35:18;100391.78;;;16.36;96.57
57192;BME280;43052;52.588;13.396;2023-07-30T00:37:45;100399.75;;;16.34;96.51
57192;BME280;43052;52.588;13.396;2023-07-30T00:40:10;100388.44;;;16.31;96.31
57192;BME280;43052;52.588;13.396;2023-07-30T00:42:36;100392.09;;;16.26;96.27
57192;BME280;43052;52.588;13.396;2023-07-30T00:45:01;100388.59;;;16.26;96.27
57192;BME280;43052;52.588;13.396;2023-07-30T00:47:28;100381.66;;;16.23;96.49
57192;BME280;43052;52.588;13.396;2023-07-30T00:49:53;100380.84;;;16.21;96.10
57192;BME280;43052;52.588;13.396;2023-07-30T00:52:20;100374.00;;;16.16;96.21
57192;BME280;43052;52.588;13.396;2023-07-30T00:54:47;100372.34;;;16.13;96.54
57192;BME280;43052;52.588;13.396;2023-07-30T00:57:13;100372.44;;;16.10;96.62
57192;BME280;43052;52.588;13.396;2023-07-30T00:59:38;100364.81;;;16.02;96.52
57192;BME280;43052;52.588;13.396;2023-07-30T01:02:04;100370.19;;;15.99;96.26
57192;BME280;43052;52.588;13.396;2023-07-30T01:04:29;100361.63;;;15.92;96.51
57192;BME280;43052;52.588;13.396;2023-07-30T01:06:55;100365.28;;;15.88;96.52
57192;BME280;43052;52.588;13.396;2023-07-30T01:09:20;100366.28;;;15.84;96.29
57192;BME280;43052;52.588;13.396;2023-07-30T01:11:46;100369.88;;;15.81;96.56
57192;BME280;43052;52.588;13.396;2023-07-30T01:14:12;100376.09;;;15.79;96.62
57192;BME280;43052;52.588;13.396;2023-07-30T01:16:39;100374.38;;;15.78;96.71
57192;BME280;43052;52.588;13.396;2023-07-30T01:19:05;100371.06;;;15.73;96.64
57192;BME280;43052;52.588;13.396;2023-07-30T01:21:35;100379.88;;;15.72;96.58
57192;BME280;43052;52.588;13.396;2023-07-30T01:24:00;100378.16;;;15.69;96.12
57192;BME280;43052;52.588;13.396;2023-07-30T01:26:32;100395.06;;;15.63;95.96
57192;BME280;43052;52.588;13.396;2023-07-30T01:29:00;100400.34;;;15.63;96.28
57192;BME280;43052;52.588;13.396;2023-07-30T01:31:30;100394.34;;;15.58;96.58
57192;BME280;43052;52.588;13.396;2023-07-30T01:33:57;100396.22;;;15.55;96.45
57192;BME280;43052;52.588;13.396;2023-07-30T01:36:24;100393.72;;;15.50;96.34
57192;BME280;43052;52.588;13.396;2023-07-30T01:38:50;100399.19;;;15.44;96.24
57192;BME280;43052;52.588;13.396;2023-07-30T01:41:16;100387.91;;;15.40;96.91
57192;BME280;43052;52.588;13.396;2023-07-30T01:43:41;100394.13;;;15.38;96.57
57192;BME280;43052;52.588;13.396;2023-07-30T01:46:06;100385.44;;;15.34;96.48
57192;BME280;43052;52.588;13.396;2023-07-30T01:48:31;100395.13;;;15.33;96.52
57192;BME280;43052;52.588;13.396;2023-07-30T01:50:57;100403.88;;;15.34;96.30
57192;BME280;43052;52.588;13.396;2023-07-30T01:53:22;100405.75;;;15.30;96.37
57192;BME280;43052;52.588;13.396;2023-07-30T01:55:47;100415.50;;;15.28;96.78
57192;BME280;43052;52.588;13.396;2023-07-30T01:58:13;100412.88;;;15.27;96.33
57192;BME280;43052;52.588;13.396;2023-07-30T02:00:38;100419.03;;;15.27;96.42
57192;BME280;43052;52.588;13.396;2023-07-30T02:03:04;100421.66;;;15.27;96.49
57192;BME280;43052;52.588;13.396;2023-07-30T02:05:29;100413.03;;;15.22;96.66
57192;BME280;43052;52.588;13.396;2023-07-30T02:07:55;100416.56;;;15.21;96.61
57192;BME280;43052;52.588;13.396;2023-07-30T02:10:20;100409.69;;;15.17;96.61
57192;BME280;43052;52.588;13.396;2023-07-30T02:12:45;100413.28;;;15.13;96.55
57192;BME280;43052;52.588;13.396;2023-07-30T02:15:10;100409.03;;;15.09;96.58
57192;BME280;43052;52.588;13.396;2023-07-30T02:17:36;100416.00;;;15.11;96.64
57192;BME280;43052;52.588;13.396;2023-07-30T02:20:01;100415.13;;;15.11;96.44
57192;BME280;43052;52.588;13.396;2023-07-30T02:22:26;100406.53;;;15.04;96.64
57192;BME280;43052;52.588;13.396;2023-07-30T02:24:51;100417.13;;;15.02;96.30
57192;BME280;43052;52.588;13.396;2023-07-30T02:27:17;100421.56;;;15.00;96.58
57192;BME280;43052;52.588;13.396;2023-07-30T02:29:42;100408.53;;;14.96;96.55
57192;BME280;43052;52.588;13.396;2023-07-30T02:32:08;100425.06;;;15.01;96.71
57192;BME280;43052;52.588;13.396;2023-07-30T02:34:34;100417.22;;;14.99;96.99
57192;BME280;43052;52.588;13.396;2023-07-30T02:36:59;100422.47;;;14.99;96.75
57192;BME280;43052;52.588;13.396;2023-07-30T02:39:24;100419.91;;;14.98;96.93
57192;BME280;43052;52.588;13.396;2023-07-30T02:41:49;100424.28;;;14.97;96.79
57192;BME280;43052;52.588;13.396;2023-07-30T02:44:15;100424.28;;;14.97;96.68
57192;BME280;43052;52.588;13.396;2023-07-30T02:46:40;100431.22;;;15.01;96.92
57192;BME280;43052;52.588;13.396;2023-07-30T02:49:05;100425.03;;;15.02;97.02
57192;BME280;43052;52.588;13.396;2023-07-30T02:51:31;100430.31;;;15.02;96.81
57192;BME280;43052;52.588;13.396;2023-07-30T02:54:03;100422.41;;;15.02;96.82
57192;BME280;43052;52.588;13.396;2023-07-30T02:56:29;100432.00;;;15.03;96.75
57192;BME280;43052;52.588;13.396;2023-07-30T02:58:54;100430.38;;;14.99;96.81
57192;BME280;43052;52.588;13.396;2023-07-30T03:01:19;100434.75;;;15.00;96.64
57192;BME280;43052;52.588;13.396;2023-07-30T03:03:45;100437.38;;;15.00;96.51
57192;BME280;43052;52.588;13.396;2023-07-30T03:06:10;100439.19;;;14.98;96.32
57192;BME280;43052;52.588;13.396;2023-07-30T03:08:35;100436.56;;;14.98;96.20
57192;BME280;43052;52.588;13.396;2023-07-30T03:11:01;100440.00;;;15.00;96.37
57192;BME280;43052;52.588;13.396;2023-07-30T03:13:26;100440.84;;;15.01;96.59
57192;BME280;43052;52.588;13.396;2023-07-30T03:15:52;100436.41;;;15.03;96.43
57192;BME280;43052;52.588;13.396;2023-07-30T03:18:17;100432.81;;;15.06;96.75
57192;BME280;43052;52.588;13.396;2023-07-30T03:20:42;100431.84;;;15.10;96.72
57192;BME280;43052;52.588;13.396;2023-07-30T03:23:07;100432.75;;;15.09;96.56
57192;BME280;43052;52.588;13.396;2023-07-30T03:25:33;100432.75;;;15.09;96.75
57192;BME280;43052;52.588;13.396;2023-07-30T03:27:58;100439.00;;;15.04;96.55
57192;BME280;43052;52.588;13.396;2023-07-30T03:30:23;100446.81;;;15.08;96.39
57192;BME280;43052;52.588;13.396;2023-07-30T03:32:48;100449.50;;;15.06;96.19
57192;BME280;43052;52.588;13.396;2023-07-30T03:35:14;100445.09;;;15.07;96.26
57192;BME280;43052;52.588;13.396;2023-07-30T03:37:39;100439.75;;;15.10;95.96
57192;BME280;43052;52.588;13.396;2023-07-30T03:40:05;100438.84;;;15.11;95.98
57192;BME280;43052;52.588;13.396;2023-07-30T03:42:30;100445.81;;;15.12;95.66
57192;BME280;43052;52.588;13.396;2023-07-30T03:44:55;100444.88;;;15.14;96.06
57192;BME280;43052;52.588;13.396;2023-07-30T03:47:20;100450.81;;;15.21;95.89
57192;BME280;43052;52.588;13.396;2023-07-30T03:49:46;100451.53;;;15.26;96.17
57192;BME280;43052;52.588;13.396;2023-07-30T03:52:11;100454.03;;;15.31;95.89
57192;BME280;43052;52.588;13.396;2023-07-30T03:54:36;100452.03;;;15.39;96.07
57192;BME280;43052;52.588;13.396;2023-07-30T03:57:01;100451.91;;;15.44;95.99
57192;BME280;43052;52.588;13.396;2023-07-30T03:59:27;100452.47;;;15.54;95.82
57192;BME280;43052;52.588;13.396;2023-07-30T04:01:53;100449.69;;;15.58;96.09
57192;BME280;43052;52.588;13.396;2023-07-30T04:04:18;100448.47;;;15.69;95.96
57192;BME280;43052;52.588;13.396;2023-07-30T04:06:44;100450.78;;;15.79;95.93
57192;BME280;43052;52.588;13.396;2023-07-30T04:09:09;100445.16;;;15.92;96.17
57192;BME280;43052;52.588;13.396;2023-07-30T04:11:34;100461.94;;;16.16;96.24
57192;BME280;43052;52.588;13.396;2023-07-30T04:13:59;100448.06;;;16.36;96.51
57192;BME280;43052;52.588;13.396;2023-07-30T04:16:25;100454.09;;;16.65;96.81
57192;BME280;43052;52.588;13.396;2023-07-30T04:18:50;100452.91;;;17.45;97.47
57192;BME280;43052;52.588;13.396;2023-07-30T04:21:15;100456.72;;;18.27;97.17
57192;BME280;43052;52.588;13.396;2023-07-30T04:23:40;100464.09;;;18.81;96.02
57192;BME280;43052;52.588;13.396;2023-07-30T04:26:06;100466.66;;;18.82;95.10
57192;BME280;43052;52.588;13.396;2023-07-30T04:28:31;100455.97;;;18.64;93.93
57192;BME280;43052;52.588;13.396;2023-07-30T04:30:56;100456.78;;;18.46;92.38
57192;BME280;43052;52.588;13.396;2023-07-30T04:33:22;100459.00;;;18.35;91.90
57192;BME280;43052;52.588;13.396;2023-07-30T04:35:47;100466.72;;;18.41;91.76
57192;BME280;43052;52.588;13.396;2023-07-30T04:38:12;100462.91;;;18.67;91.59
57192;BME280;43052;52.588;13.396;2023-07-30T04:40:38;100463.59;;;18.72;90.88
57192;BME280;43052;52.588;13.396;2023-07-30T04:43:04;100472.31;;;18.95;91.78
57192;BME280;43052;52.588;13.396;2023-07-30T04:45:29;100464.91;;;19.78;91.46
57192;BME280;43052;52.588;13.396;2023-07-30T04:47:56;100471.69;;;20.73;88.89
57192;BME280;43052;52.588;13.396;2023-07-30T04:50:21;100482.28;;;20.91;86.09
57192;BME280;43052;52.588;13.396;2023-07-30T04:52:46;100474.28;;;21.56;84.05
57192;BME280;43052;52.588;13.396;2023-07-30T04:55:11;100481.00;;;22.26;80.08
57192;BME280;43052;52.588;13.396;2023-07-30T04:57:37;100472.38;;;22.82;77.77
57192;BME280;43052;52.588;13.396;2023-07-30T05:00:02;100466.53;;;23.75;73.66
57192;BME280;43052;52.588;13.396;2023-07-30T05:02:28;100469.22;;;24.43;69.11
57192;BME280;43052;52.588;13.396;2023-07-30T05:04:53;100463.47;;;24.75;67.46
57192;BME280;43052;52.588;13.396;2023-07-30T05:07:18;100464.81;;;25.06;64.85
57192;BME280;43052;52.588;13.396;2023-07-30T05:09:44;100466.34;;;25.60;63.29
57192;BME280;43052;52.588;13.396;2023-07-30T05:12:09;100465.41;;;25.73;61.24
57192;BME280;43052;52.588;13.396;2023-07-30T05:14:34;100467.91;;;26.47;58.74
57192;BME280;43052;52.588;13.396;2023-07-30T05:16:59;100457.34;;;27.25;56.07
57192;BME280;43052;52.588;13.396;2023-07-30T05:19:24;100453.22;;;27.76;53.00
57192;BME280;43052;52.588;13.396;2023-07-30T05:21:50;100452.59;;;28.38;51.73
57192;BME280;43052;52.588;13.396;2023-07-30T05:24:15;100444.38;;;29.32;49.36
57192;BME280;43052;52.588;13.396;2023-07-30T05:26:40;100453.25;;;30.13;47.01
57192;BME280;43052;52.588;13.396;2023-07-30T05:29:06;100447.78;;;30.72;45.65
57192;BME280;43052;52.588;13.396;2023-07-30T05:31:31;100450.13;;;31.40;44.14
57192;BME280;43052;52.588;13.396;2023-07-30T05:33:56;100447.50;;;32.21;42.19
57192;BME280;43052;52.588;13.396;2023-07-30T05:36:22;100451.50;;;32.79;40.02
57192;BME280;43052;52.588;13.396;2023-07-30T05:38:47;100451.16;;;32.12;39.89
57192;BME280;43052;52.588;13.396;2023-07-30T05:41:12;100462.09;;;30.72;41.45
57192;BME280;43052;52.588;13.396;2023-07-30T05:43:37;100456.59;;;29.46;43.90
57192;BME280;43052;52.588;13.396;2023-07-30T05:46:02;100457.19;;;28.47;45.50
57192;BME280;43052;52.588;13.396;2023-07-30T05:48:28;100463.91;;;27.55;47.25
57192;BME280;43052;52.588;13.396;2023-07-30T05:50:53;100464.75;;;26.76;48.10
57192;BME280;43052;52.588;13.396;2023-07-30T05:53:18;100470.06;;;26.06;49.97
57192;BME280;43052;52.588;13.396;2023-07-30T05:55:43;100472.69;;;25.71;50.78
57192;BME280;43052;52.588;13.396;2023-07-30T05:58:09;100470.59;;;25.63;51.73
57192;BME280;43052;52.588;13.396;2023-07-30T06:00:34;100478.72;;;25.61;52.51
57192;BME280;43052;52.588;13.396;2023-07-30T06:02:59;100472.88;;;25.80;51.77
57192;BME280;43052;52.588;13.396;2023-07-30T06:05:25;100470.63;;;25.99;51.81
57192;BME280;43052;52.588;13.396;2023-07-30T06:07:51;100470.28;;;26.27;50.85
57192;BME280;43052;52.588;13.396;2023-07-30T06:10:16;100473.44;;;26.21;50.66
57192;BME280;43052;52.588;13.396;2023-07-30T06:12:41;100465.69;;;26.05;51.17
57192;BME280;43052;52.588;13.396;2023-07-30T06:15:08;100470.88;;;26.20;51.73
57192;BME280;43052;52.588;13.396;2023-07-30T06:17:33;100471.03;;;26.41;50.85
57192;BME280;43052;52.588;13.396;2023-07-30T06:19:58;100470.31;;;26.39;50.29
57192;BME280;43052;52.588;13.396;2023-07-30T06:22:24;100468.94;;;26.22;50.54
57192;BME280;43052;52.588;13.396;2023-07-30T06:24:49;100480.41;;;26.94;49.97
57192;BME280;43052;52.588;13.396;2023-07-30T06:27:14;100465.09;;;27.62;47.85
57192;BME280;43052;52.588;13.396;2023-07-30T06:29:39;100470.41;;;28.60;46.32
57192;BME280;43052;52.588;13.396;2023-07-30T06:32:05;100470.16;;;30.82;42.13
57192;BME280;43052;52.588;13.396;2023-07-30T06:34:31;100459.50;;;31.64;39.58
57192;BME280;43052;52.588;13.396;2023-07-30T06:36:56;100460.66;;;31.16;40.02
57192;BME280;43052;52.588;13.396;2023-07-30T06:39:21;100457.88;;;30.60;41.63
57192;BME280;43052;52.588;13.396;2023-07-30T06:41:46;100466.31;;;30.08;41.95
57192;BME280;43052;52.588;13.396;2023-07-30T06:44:12;100463.84;;;29.46;41.92
57192;BME280;43052;52.588;13.396;2023-07-30T06:46:37;100472.50;;;29.18;42.34
57192;BME280;43052;52.588;13.396;2023-07-30T06:49:02;100471.47;;;29.00;43.03
57192;BME280;43052;52.588;13.396;2023-07-30T06:51:27;100474.09;;;29.21;43.17
57192;BME280;43052;52.588;13.396;2023-07-30T06:53:53;100472.66;;;29.58;42.06
57192;BME280;43052;52.588;13.396;2023-07-30T06:56:18;100468.25;;;29.47;42.24
57192;BME280;43052;52.588;13.396;2023-07-30T06:58:44;100472.59;;;28.97;43.17
57192;BME280;43052;52.588;13.396;2023-07-30T07:01:09;100467.03;;;29.30;43.18
57192;BME280;43052;52.588;13.396;2023-07-30T07:03:34;100467.38;;;30.64;40.87
57192;BME280;43052;52.588;13.396;2023-07-30T07:05:59;100453.16;;;31.55;39.04
57192;BME280;43052;52.588;13.396;2023-07-30T07:08:25;100454.94;;;31.65;38.44
57192;BME280;43052;52.588;13.396;2023-07-30T07:10:50;100454.22;;;32.88;36.38
57192;BME280;43052;52.588;13.396;2023-07-30T07:13:15;100455.91;;;34.41;33.80
57192;BME280;43052;52.588;13.396;2023-07-30T07:15:42;100454.81;;;36.16;31.51
57192;BME280;43052;52.588;13.396;2023-07-30T07:18:07;100461.47;;;37.11;29.76
57192;BME280;43052;52.588;13.396;2023-07-30T07:20:32;100462.03;;;37.22;29.25
57192;BME280;43052;52.588;13.396;2023-07-30T07:22:57;100458.56;;;36.15;30.36
57192;BME280;43052;52.588;13.396;2023-07-30T07:25:23;100461.25;;;35.76;31.12
57192;BME280;43052;52.588;13.396;2023-07-30T07:27:48;100455.78;;;36.91;30.23
57192;BME280;43052;52.588;13.396;2023-07-30T07:30:13;100451.72;;;37.75;28.26
57192;BME280;43052;52.588;13.396;2023-07-30T07:32:38;100451.59;;;38.62;27.92
57192;BME280;43052;52.588;13.396;2023-07-30T07:35:04;100456.56;;;38.87;26.88
57192;BME280;43052;52.588;13.396;2023-07-30T07:37:31;100458.97;;;37.46;28.16
57192;BME280;43052;52.588;13.396;2023-07-30T07:39:57;100460.84;;;35.65;30.71
57192;BME280;43052;52.588;13.396;2023-07-30T07:42:22;100460.44;;;35.44;31.61
57192;BME280;43052;52.588;13.396;2023-07-30T07:44:47;100457.03;;;35.74;31.43
57192;BME280;43052;52.588;13.396;2023-07-30T07:47:12;100452.84;;;36.48;30.21
57192;BME280;43052;52.588;13.396;2023-07-30T07:49:38;100454.66;;;37.37;28.91
57192;BME280;43052;52.588;13.396;2023-07-30T07:52:03;100446.19;;;36.50;29.27
57192;BME280;43052;52.588;13.396;2023-07-30T07:54:28;100446.72;;;35.69;32.00
57192;BME280;43052;52.588;13.396;2023-07-30T07:56:54;100447.41;;;35.86;31.17
57192;BME280;43052;52.588;13.396;2023-07-30T07:59:19;100455.47;;;35.56;31.37
57192;BME280;43052;52.588;13.396;2023-07-30T08:01:44;100454.78;;;37.29;29.75
57192;BME280;43052;52.588;13.396;2023-07-30T08:04:09;100451.97;;;38.94;26.62
57192;BME280;43052;52.588;13.396;2023-07-30T08:06:35;100452.88;;;39.08;26.88
57192;BME280;43052;52.588;13.396;2023-07-30T08:09:00;100450.56;;;40.21;25.25
57192;BME280;43052;52.588;13.396;2023-07-30T08:11:25;100467.63;;;39.21;25.92
57192;BME280;43052;52.588;13.396;2023-07-30T08:13:51;100460.94;;;36.71;29.31
57192;BME280;43052;52.588;13.396;2023-07-30T08:16:16;100464.75;;;36.08;31.07
57192;BME280;43052;52.588;13.396;2023-07-30T08:18:41;100453.25;;;35.75;30.47
57192;BME280;43052;52.588;13.396;2023-07-30T08:21:06;100468.25;;;34.43;32.31
57192;BME280;43052;52.588;13.396;2023-07-30T08:23:32;100465.75;;;36.31;30.17
57192;BME280;43052;52.588;13.396;2023-07-30T08:26:00;100456.16;;;38.90;26.73
57192;BME280;43052;52.588;13.396;2023-07-30T08:28:27;100457.66;;;40.69;24.49
57192;BME280;43052;52.588;13.396;2023-07-30T08:30:59;100449.69;;;41.58;23.06
57192;BME280;43052;52.588;13.396;2023-07-30T08:33:37;100467.19;;;40.60;23.27
57192;BME280;43052;52.588;13.396;2023-07-30T08:36:13;100469.50;;;38.15;26.25
57192;BME280;43052;52.588;13.396;2023-07-30T08:38:40;100467.25;;;37.97;26.25
57192;BME280;43052;52.588;13.396;2023-07-30T08:41:07;100468.22;;;38.11;26.00
57192;BME280;43052;52.588;13.396;2023-07-30T08:43:34;100460.66;;;40.40;23.84
57192;BME280;43052;52.588;13.396;2023-07-30T08:46:05;100462.06;;;40.70;23.00
57192;BME280;43052;52.588;13.396;2023-07-30T08:48:32;100462.41;;;41.07;22.43
57192;BME280;43052;52.588;13.396;2023-07-30T08:50:57;100469.84;;;41.32;22.26
57192;BME280;43052;52.588;13.396;2023-07-30T08:53:26;100440.38;;;40.68;22.07
57192;BME280;43052;52.588;13.396;2023-07-30T08:55:57;100463.09;;;41.73;21.93
57192;BME280;43052;52.588;13.396;2023-07-30T08:58:27;100460.00;;;43.32;19.87
57192;BME280;43052;52.588;13.396;2023-07-30T09:00:55;100459.25;;;42.32;20.00
57192;BME280;43052;52.588;13.396;2023-07-30T09:03:22;100462.19;;;38.79;23.07
57192;BME280;43052;52.588;13.396;2023-07-30T09:05:48;100461.81;;;35.95;26.43
57192;BME280;43052;52.588;13.396;2023-07-30T09:08:14;100467.75;;;35.44;27.55
57192;BME280;43052;52.588;13.396;2023-07-30T09:10:39;100474.06;;;34.96;28.95
57192;BME280;43052;52.588;13.396;2023-07-30T09:13:04;100451.38;;;36.37;27.00
57192;BME280;43052;52.588;13.396;2023-07-30T09:15:35;100469.72;;;35.19;27.47
57192;BME280;43052;52.588;13.396;2023-07-30T09:18:02;100463.09;;;36.91;26.17
57192;BME280;43052;52.588;13.396;2023-07-30T09:20:28;100462.09;;;39.62;22.95
57192;BME280;43052;52.588;13.396;2023-07-30T09:23:01;100462.25;;;39.41;22.49
57192;BME280;43052;52.588;13.396;2023-07-30T09:25:26;100471.31;;;38.93;22.78
57192;BME280;43052;52.588;13.396;2023-07-30T09:27:52;100467.72;;;38.85;23.34
57192;BME280;43052;52.588;13.396;2023-07-30T09:30:24;100466.13;;;40.47;21.03
57192;BME280;43052;52.588;13.396;2023-07-30T09:32:54;100474.41;;;41.45;20.38
57192;BME280;43052;52.588;13.396;2023-07-30T09:35:20;100475.00;;;39.95;21.55
57192;BME280;43052;52.588;13.396;2023-07-30T09:37:45;100479.75;;;39.05;23.03
57192;BME280;43052;52.588;13.396;2023-07-30T09:40:12;100467.81;;;40.55;21.17
57192;BME280;43052;52.588;13.396;2023-07-30T09:42:41;100469.22;;;43.38;19.73
57192;BME280;43052;52.588;13.396;2023-07-30T09:45:08;100461.63;;;45.06;17.46
57192;BME280;43052;52.588;13.396;2023-07-30T09:47:46;100466.47;;;42.26;18.75
57192;BME280;43052;52.588;13.396;2023-07-30T09:50:11;100480.88;;;39.79;21.83
57192;BME280;43052;52.588;13.396;2023-07-30T09:52:36;100477.09;;;38.19;23.27
57192;BME280;43052;52.588;13.396;2023-07-30T09:55:02;100484.19;;;36.05;25.51
57192;BME280;43052;52.588;13.396;2023-07-30T09:57:28;100495.22;;;34.53;27.48
57192;BME280;43052;52.588;13.396;2023-07-30T09:59:53;100492.09;;;33.82;28.55
57192;BME280;43052;52.588;13.396;2023-07-30T10:02:18;100478.97;;;32.66;29.43
57192;BME280;43052;52.588;13.396;2023-07-30T10:04:47;100488.56;;;31.52;31.55
57192;BME280;43052;52.588;13.396;2023-07-30T10:07:19;100496.47;;;30.70;32.38
57192;BME280;43052;52.588;13.396;2023-07-30T10:09:46;100506.47;;;30.01;33.80
57192;BME280;43052;52.588;13.396;2023-07-30T10:12:16;100500.41;;;29.58;34.98
57192;BME280;43052;52.588;13.396;2023-07-30T10:14:43;100498.47;;;29.70;35.70
57192;BME280;43052;52.588;13.396;2023-07-30T10:17:10;100497.59;;;29.60;35.55
57192;BME280;43052;52.588;13.396;2023-07-30T10:19:36;100488.19;;;29.34;35.47
57192;BME280;43052;52.588;13.396;2023-07-30T10:24:37;100484.84;;;31.81;32.86
57192;BME280;43052;52.588;13.396;2023-07-30T10:27:09;100480.78;;;33.86;31.00
57192;BME280;43052;52.588;13.396;2023-07-30T10:29:35;100482.19;;;36.37;27.46
57192;BME280;43052;52.588;13.396;2023-07-30T10:32:01;100485.69;;;38.16;24.28
57192;BME280;43052;52.588;13.396;2023-07-30T10:34:44;100482.63;;;36.94;24.87
57192;BME280;43052;52.588;13.396;2023-07-30T10:37:09;100486.47;;;34.82;27.00
57192;BME280;43052;52.588;13.396;2023-07-30T10:39:35;100482.75;;;33.51;28.90
57192;BME280;43052;52.588;13.396;2023-07-30T10:42:00;100476.22;;;32.58;29.85
57192;BME280;43052;52.588;13.396;2023-07-30T10:44:32;100486.72;;;31.81;30.99
57192;BME280;43052;52.588;13.396;2023-07-30T10:46:58;100491.56;;;31.31;32.04
57192;BME280;43052;52.588;13.396;2023-07-30T10:49:24;100480.53;;;30.77;32.47
57192;BME280;43052;52.588;13.396;2023-07-30T10:51:57;100491.69;;;30.35;33.99
57192;BME280;43052;52.588;13.396;2023-07-30T10:54:22;100491.00;;;30.03;34.60
57192;BME280;43052;52.588;13.396;2023-07-30T10:56:48;100492.84;;;29.93;35.30
57192;BME280;43052;52.588;13.396;2023-07-30T10:59:14;100495.59;;;29.52;35.55
57192;BME280;43052;52.588;13.396;2023-07-30T11:01:44;100502.09;;;29.08;35.52
57192;BME280;43052;52.588;13.396;2023-07-30T11:04:18;100497.03;;;29.15;36.01
57192;BME280;43052;52.588;13.396;2023-07-30T11:06:49;100493.31;;;29.37;34.42
57192;BME280;43052;52.588;13.396;2023-07-30T11:09:25;100492.63;;;29.14;34.45
57192;BME280;43052;52.588;13.396;2023-07-30T11:11:51;100495.50;;;28.91;34.65
57192;BME280;43052;52.588;13.396;2023-07-30T11:14:22;100492.13;;;28.68;36.13
57192;BME280;43052;52.588;13.396;2023-07-30T11:16:58;100479.25;;;28.93;35.97
57192;BME280;43052;52.588;13.396;2023-07-30T11:19:24;100486.16;;;29.27;36.56
57192;BME280;43052;52.588;13.396;2023-07-30T11:21:51;100491.41;;;29.28;36.42
57192;BME280;43052;52.588;13.396;2023-07-30T11:24:17;100481.31;;;29.20;35.33
57192;BME280;43052;52.588;13.396;2023-07-30T11:26:43;100475.94;;;29.20;35.45
57192;BME280;43052;52.588;13.396;2023-07-30T11:29:18;100481.25;;;29.42;34.53
57192;BME280;43052;52.588;13.396;2023-07-30T11:31:45;100482.97;;;29.43;34.27
57192;BME280;43052;52.588;13.396;2023-07-30T11:34:11;100472.75;;;29.36;33.66
57192;BME280;43052;52.588;13.396;2023-07-30T11:36:37;100475.59;;;29.45;33.56
57192;BME280;43052;52.588;13.396;2023-07-30T11:39:03;100473.91;;;29.53;34.08
57192;BME280;43052;52.588;13.396;2023-07-30T11:41:29;100463.44;;;29.60;33.68
57192;BME280;43052;52.588;13.396;2023-07-30T11:43:55;100470.09;;;29.66;33.13
57192;BME280;43052;52.588;13.396;2023-07-30T11:46:20;100466.00;;;29.72;33.26
57192;BME280;43052;52.588;13.396;2023-07-30T11:48:52;100460.28;;;29.45;33.80
57192;BME280;43052;52.588;13.396;2023-07-30T11:51:23;100474.63;;;29.15;34.33
57192;BME280;43052;52.588;13.396;2023-07-30T11:53:54;100477.44;;;29.03;34.28
57192;BME280;43052;52.588;13.396;2023-07-30T11:56:22;100467.91;;;28.89;34.27
57192;BME280;43052;52.588;13.396;2023-07-30T11:58:49;100471.16;;;28.93;33.91
57192;BME280;43052;52.588;13.396;2023-07-30T12:01:15;100469.28;;;28.84;33.75
57192;BME280;43052;52.588;13.396;2023-07-30T12:03:40;100469.63;;;28.69;33.85
57192;BME280;43052;52.588;13.396;2023-07-30T12:06:06;100476.84;;;28.48;33.88
57192;BME280;43052;52.588;13.396;2023-07-30T12:08:34;100466.03;;;28.38;34.30
57192;BME280;43052;52.588;13.396;2023-07-30T12:11:08;100475.56;;;28.09;33.99
57192;BME280;43052;52.588;13.396;2023-07-30T12:13:34;100475.66;;;28.19;33.74
57192;BME280;43052;52.588;13.396;2023-07-30T12:15:59;100476.66;;;28.39;33.63
57192;BME280;43052;52.588;13.396;2023-07-30T12:18:26;100460.13;;;28.44;32.14
57192;BME280;43052;52.588;13.396;2023-07-30T12:20:52;100470.59;;;28.26;32.90
57192;BME280;43052;52.588;13.396;2023-07-30T12:23:19;100465.81;;;28.08;33.00
57192;BME280;43052;52.588;13.396;2023-07-30T12:25:45;100473.03;;;27.96;33.25
57192;BME280;43052;52.588;13.396;2023-07-30T12:28:11;100465.56;;;28.00;33.44
57192;BME280;43052;52.588;13.396;2023-07-30T12:30:36;100461.84;;;28.24;33.77
57192;BME280;43052;52.588;13.396;2023-07-30T12:33:05;100463.75;;;28.64;33.20
57192;BME280;43052;52.588;13.396;2023-07-30T12:35:31;100463.22;;;28.91;32.36
57192;BME280;43052;52.588;13.396;2023-07-30T12:37:57;100467.69;;;29.12;32.28